Time;durP1;ratioP1;P1;durP2;ratioP2;P2;SDS_P1;SDS_P2;PMS_P1;PMS_P2;Temp;Humidity;BMP_temperature;BMP_pressure;BME280_temperature;BME280_humidity;BME280_pressure;Samples;Min_cycle;Max_cycle;Signal;HPM_P1;HPM_P2
2022/01/05 00:01:37;;;;;;;11.32;2.17;;;;;;;;;;5000725;28;20022;-62
2022/01/05 00:04:03;;;;;;;9.93;1.63;;;;;;;;;;5003052;28;20027;-62
2022/01/05 00:06:30;;;;;;;10.23;1.73;;;;;;;;;;5002051;28;20093;-63
2022/01/05 00:08:56;;;;;;;8.85;1.48;;;;;;;;;;5006517;28;20402;-63
2022/01/05 00:11:23;;;;;;;8.82;1.50;;;;;;;;;;4998493;28;20030;-63
2022/01/05 00:13:49;;;;;;;15.20;2.70;;;;;;;;;;5005497;28;20033;-63
2022/01/05 00:16:15;;;;;;;8.57;1.77;;;;;;;;;;5004757;28;20136;-63
2022/01/05 00:18:41;;;;;;;13.60;1.65;;;;;;;;;;4998690;28;20022;-63
2022/01/05 00:21:07;;;;;;;9.55;1.65;;;;;;;;;;4995113;28;20036;-63
2022/01/05 00:23:33;;;;;;;10.00;1.80;;;;;;;;;;4998922;28;20095;-63
2022/01/05 00:26:03;;;;;;;11.48;1.40;;;;;;;;;;5003661;28;20034;-63
2022/01/05 00:28:29;;;;;;;14.45;1.80;;;;;;;;;;5006486;28;20498;-63
2022/01/05 00:30:55;;;;;;;5.80;2.10;;;;;;;;;;4996578;28;20030;-63
2022/01/05 00:33:21;;;;;;;7.03;1.60;;;;;;;;;;4999349;28;20034;-63
2022/01/05 00:35:47;;;;;;;6.95;1.45;;;;;;;;;;5001773;28;20422;-63
2022/01/05 00:38:14;;;;;;;5.65;1.40;;;;;;;;;;4997327;28;20046;-63
2022/01/05 00:40:40;;;;;;;9.98;2.40;;;;;;;;;;4993658;28;20026;-63
2022/01/05 00:43:06;;;;;;;11.18;2.08;;;;;;;;;;5008651;28;20030;-63
2022/01/05 00:45:32;;;;;;;11.80;2.15;;;;;;;;;;4998377;28;20025;-63
2022/01/05 00:47:58;;;;;;;9.85;2.58;;;;;;;;;;5004059;28;20022;-62
2022/01/05 00:50:24;;;;;;;13.20;2.85;;;;;;;;;;5004775;28;20034;-63
2022/01/05 00:52:50;;;;;;;10.05;2.90;;;;;;;;;;4996595;28;20018;-63
2022/01/05 00:55:16;;;;;;;15.48;3.40;;;;;;;;;;4996038;28;20017;-63
2022/01/05 00:57:43;;;;;;;11.57;2.30;;;;;;;;;;4999413;28;20026;-63
2022/01/05 01:00:09;;;;;;;16.48;3.47;;;;;;;;;;5002804;28;20031;-63
2022/01/05 01:02:35;;;;;;;17.92;2.65;;;;;;;;;;5006277;28;20038;-63
2022/01/05 01:05:01;;;;;;;15.48;1.85;;;;;;;;;;5009041;28;20029;-63
2022/01/05 01:07:27;;;;;;;13.80;2.20;;;;;;;;;;4996484;28;20026;-63
2022/01/05 01:09:53;;;;;;;13.95;2.95;;;;;;;;;;5000729;28;20351;-63
2022/01/05 01:12:19;;;;;;;22.92;4.45;;;;;;;;;;5001261;28;20114;-63
2022/01/05 01:14:45;;;;;;;11.63;2.20;;;;;;;;;;5007355;28;20129;-63
2022/01/05 01:17:12;;;;;;;17.95;2.70;;;;;;;;;;5004650;28;20030;-63
2022/01/05 01:19:38;;;;;;;13.38;4.05;;;;;;;;;;4997897;28;20030;-63
2022/01/05 01:22:04;;;;;;;18.65;3.17;;;;;;;;;;5002926;28;20041;-64
2022/01/05 01:24:30;;;;;;;9.45;2.15;;;;;;;;;;5004746;28;20101;-63
2022/01/05 01:26:56;;;;;;;17.95;2.67;;;;;;;;;;4996579;28;20041;-63
2022/01/05 01:29:22;;;;;;;17.95;2.85;;;;;;;;;;5008344;28;20034;-63
2022/01/05 01:31:49;;;;;;;17.25;2.40;;;;;;;;;;4999107;28;20022;-63
2022/01/05 01:34:16;;;;;;;16.58;2.33;;;;;;;;;;5001687;28;20034;-63
2022/01/05 01:36:42;;;;;;;14.35;2.22;;;;;;;;;;5000528;28;20448;-63
2022/01/05 01:39:08;;;;;;;8.65;2.17;;;;;;;;;;4992900;28;20054;-63
2022/01/05 01:41:34;;;;;;;14.18;2.30;;;;;;;;;;5007641;28;20014;-63
2022/01/05 01:44:00;;;;;;;16.65;2.58;;;;;;;;;;5000022;28;20080;-63
2022/01/05 01:46:26;;;;;;;11.73;2.38;;;;;;;;;;5000673;28;20026;-63
2022/01/05 01:48:52;;;;;;;18.63;2.92;;;;;;;;;;5007388;28;20045;-63
2022/01/05 01:51:19;;;;;;;19.00;2.42;;;;;;;;;;4994596;28;20030;-63
2022/01/05 01:53:45;;;;;;;11.80;2.08;;;;;;;;;;5001525;28;20121;-63
2022/01/05 01:56:12;;;;;;;11.68;2.60;;;;;;;;;;5001320;28;20025;-63
2022/01/05 01:58:38;;;;;;;6.72;1.50;;;;;;;;;;4999308;28;20030;-63
2022/01/05 02:01:04;;;;;;;7.35;1.52;;;;;;;;;;5008863;28;20034;-62
2022/01/05 02:03:31;;;;;;;9.00;1.60;;;;;;;;;;4984118;28;20030;-63
2022/01/05 02:05:57;;;;;;;12.10;2.40;;;;;;;;;;5008056;28;20038;-63
2022/01/05 02:08:24;;;;;;;5.32;1.48;;;;;;;;;;4995911;28;20502;-63
2022/01/05 02:10:50;;;;;;;16.33;2.60;;;;;;;;;;5010472;28;20101;-63
2022/01/05 02:13:17;;;;;;;9.70;1.90;;;;;;;;;;4998762;28;20117;-63
2022/01/05 02:15:43;;;;;;;15.98;2.22;;;;;;;;;;5010736;28;20029;-63
2022/01/05 02:18:57;;;;;;;10.45;1.63;;;;;;;;;;5004242;28;20033;-63
2022/01/05 02:21:03;;;;;;;15.52;4.28;;;;;;;;;;5000837;28;20565;-63
2022/01/05 02:23:29;;;;;;;29.70;5.70;;;;;;;;;;5006460;28;20038;-63
2022/01/05 02:25:55;;;;;;;9.65;1.63;;;;;;;;;;5002426;28;20026;-63
2022/01/05 02:28:21;;;;;;;9.95;2.13;;;;;;;;;;5005064;28;20034;-63
2022/01/05 02:30:51;;;;;;;12.43;2.13;;;;;;;;;;5009319;28;20030;-63
2022/01/05 02:33:17;;;;;;;13.80;2.15;;;;;;;;;;5004322;28;20030;-63
2022/01/05 02:35:43;;;;;;;11.75;2.40;;;;;;;;;;5000168;28;20018;-63
2022/01/05 02:38:09;;;;;;;14.50;2.78;;;;;;;;;;5000016;28;20046;-63
2022/01/05 02:40:35;;;;;;;10.15;2.20;;;;;;;;;;4995637;28;20105;-63
2022/01/05 02:43:01;;;;;;;15.98;2.15;;;;;;;;;;5010718;28;20037;-63
2022/01/05 02:45:27;;;;;;;10.68;1.70;;;;;;;;;;4997973;28;20058;-63
2022/01/05 02:47:55;;;;;;;12.75;3.28;;;;;;;;;;5008702;28;20038;-63
2022/01/05 02:50:21;;;;;;;18.85;2.55;;;;;;;;;;5004734;28;20112;-62
2022/01/05 02:52:47;;;;;;;10.07;1.92;;;;;;;;;;5001875;28;20072;-63
2022/01/05 02:55:14;;;;;;;5.10;1.60;;;;;;;;;;4996190;28;20035;-63
2022/01/05 02:57:40;;;;;;;6.85;1.45;;;;;;;;;;4999030;28;20506;-63
2022/01/05 03:00:08;;;;;;;18.73;3.90;;;;;;;;;;5007566;28;20482;-63
2022/01/05 03:02:34;;;;;;;7.55;1.73;;;;;;;;;;5005825;28;20064;-62
2022/01/05 03:05:00;;;;;;;6.95;2.05;;;;;;;;;;5000040;28;20076;-63
2022/01/05 03:07:27;;;;;;;6.60;1.13;;;;;;;;;;5003156;28;20022;-63
2022/01/05 03:09:53;;;;;;;8.63;1.63;;;;;;;;;;4995211;28;20153;-63
2022/01/05 03:12:19;;;;;;;6.80;0.90;;;;;;;;;;4994774;28;20479;-63
2022/01/05 03:14:45;;;;;;;2.53;1.00;;;;;;;;;;5007290;28;20030;-63
2022/01/05 03:17:11;;;;;;;5.63;1.10;;;;;;;;;;4984845;28;20031;-63
2022/01/05 03:19:37;;;;;;;6.03;1.33;;;;;;;;;;4975669;28;20145;-63
2022/01/05 03:22:03;;;;;;;5.32;1.20;;;;;;;;;;4985467;28;20030;-63
2022/01/05 03:24:29;;;;;;;8.68;1.45;;;;;;;;;;4994495;28;20037;-63
2022/01/05 03:26:55;;;;;;;9.40;1.00;;;;;;;;;;4994993;28;20045;-63
2022/01/05 03:29:22;;;;;;;9.27;1.90;;;;;;;;;;4994582;28;20114;-63
2022/01/05 03:31:48;;;;;;;5.13;1.20;;;;;;;;;;4994594;28;20030;-63
2022/01/05 03:34:18;;;;;;;9.88;1.50;;;;;;;;;;4994849;28;20194;-63
2022/01/05 03:36:45;;;;;;;10.77;1.70;;;;;;;;;;4994625;28;20033;-63
2022/01/05 03:39:11;;;;;;;9.40;1.60;;;;;;;;;;4994493;28;20073;-63
2022/01/05 03:41:37;;;;;;;6.75;1.20;;;;;;;;;;4994493;28;20025;-62
2022/01/05 03:44:04;;;;;;;4.32;1.02;;;;;;;;;;4994881;28;20050;-63
2022/01/05 03:46:30;;;;;;;8.10;1.77;;;;;;;;;;4993975;28;20088;-63
2022/01/05 03:48:56;;;;;;;6.47;1.27;;;;;;;;;;4994481;28;20030;-63
2022/01/05 03:51:22;;;;;;;7.93;1.30;;;;;;;;;;4994299;28;20023;-63
2022/01/05 03:53:48;;;;;;;8.10;1.50;;;;;;;;;;4993970;28;20030;-62
2022/01/05 03:56:14;;;;;;;6.65;1.65;;;;;;;;;;4994354;28;20060;-63
2022/01/05 03:58:40;;;;;;;8.75;2.25;;;;;;;;;;4994167;28;20036;-63
2022/01/05 04:01:07;;;;;;;4.22;1.20;;;;;;;;;;4993936;28;20030;-63
2022/01/05 04:03:33;;;;;;;5.57;1.40;;;;;;;;;;4994279;28;20041;-62
2022/01/05 04:05:59;;;;;;;4.30;1.13;;;;;;;;;;4993579;28;20528;-62
2022/01/05 04:08:25;;;;;;;11.63;1.63;;;;;;;;;;4993898;28;20030;-63
2022/01/05 04:10:51;;;;;;;6.15;1.75;;;;;;;;;;4993793;28;20153;-63
2022/01/05 04:13:18;;;;;;;12.57;1.65;;;;;;;;;;4993989;28;20030;-62
2022/01/05 04:15:44;;;;;;;11.88;2.05;;;;;;;;;;4993502;28;20041;-63
2022/01/05 04:18:10;;;;;;;4.68;1.67;;;;;;;;;;4994159;28;20077;-63
2022/01/05 04:20:36;;;;;;;9.65;2.05;;;;;;;;;;4993651;28;20125;-63
2022/01/05 04:23:02;;;;;;;6.03;2.00;;;;;;;;;;4978453;28;20109;-63
2022/01/05 04:25:29;;;;;;;8.60;2.88;;;;;;;;;;4993080;28;20029;-62
2022/01/05 04:27:55;;;;;;;7.13;1.50;;;;;;;;;;4993927;28;20056;-63
2022/01/05 04:30:21;;;;;;;4.40;1.48;;;;;;;;;;4993352;28;20058;-62
2022/01/05 04:32:47;;;;;;;7.80;1.77;;;;;;;;;;4993648;28;20475;-62
2022/01/05 04:35:14;;;;;;;5.95;1.35;;;;;;;;;;4993673;28;20077;-63
2022/01/05 04:37:43;;;;;;;5.72;1.38;;;;;;;;;;4992850;28;20050;-62
2022/01/05 04:40:11;;;;;;;5.88;1.50;;;;;;;;;;4993753;28;20073;-63
2022/01/05 04:42:37;;;;;;;4.22;1.55;;;;;;;;;;4993333;28;20057;-63
2022/01/05 04:45:03;;;;;;;5.35;1.08;;;;;;;;;;4993256;28;20045;-63
2022/01/05 04:47:29;;;;;;;6.97;1.75;;;;;;;;;;4993248;28;20034;-62
2022/01/05 04:49:55;;;;;;;5.43;1.40;;;;;;;;;;4993105;28;20109;-63
2022/01/05 04:52:21;;;;;;;7.43;1.58;;;;;;;;;;4992972;28;20116;-62
2022/01/05 04:54:47;;;;;;;9.85;2.20;;;;;;;;;;4975577;28;20030;-62
2022/01/05 04:57:17;;;;;;;13.10;1.67;;;;;;;;;;4992910;28;20549;-63
2022/01/05 04:59:43;;;;;;;6.90;1.40;;;;;;;;;;4992690;28;20049;-62
2022/01/05 05:02:13;;;;;;;12.80;1.73;;;;;;;;;;4993344;28;20038;-62
2022/01/05 05:04:39;;;;;;;8.98;1.50;;;;;;;;;;4992695;28;20038;-63
2022/01/05 05:07:06;;;;;;;9.05;1.77;;;;;;;;;;4993119;28;20026;-63
2022/01/05 05:09:32;;;;;;;7.35;1.80;;;;;;;;;;4992653;28;20110;-63
2022/01/05 05:11:58;;;;;;;9.20;1.67;;;;;;;;;;4993017;28;20105;-63
2022/01/05 05:14:24;;;;;;;9.95;1.48;;;;;;;;;;4992677;28;20068;-63
2022/01/05 05:16:50;;;;;;;7.38;2.13;;;;;;;;;;4990521;28;20011;-63
2022/01/05 05:19:16;;;;;;;14.75;1.83;;;;;;;;;;4992210;28;20050;-62
2022/01/05 05:21:42;;;;;;;8.50;1.92;;;;;;;;;;5007237;28;20037;-63
2022/01/05 05:24:10;;;;;;;11.55;1.90;;;;;;;;;;4992832;28;20033;-63
2022/01/05 05:26:36;;;;;;;11.55;2.15;;;;;;;;;;4992575;28;20018;-63
2022/01/05 05:29:02;;;;;;;10.40;1.48;;;;;;;;;;4992720;28;20038;-62
2022/01/05 05:31:28;;;;;;;8.40;1.50;;;;;;;;;;4992745;28;20054;-63
2022/01/05 05:33:54;;;;;;;12.70;1.60;;;;;;;;;;4992861;28;20117;-63
2022/01/05 05:36:21;;;;;;;5.93;1.30;;;;;;;;;;4992364;28;20475;-63
2022/01/05 05:38:47;;;;;;;14.18;1.92;;;;;;;;;;4992220;28;20053;-63
2022/01/05 05:41:13;;;;;;;14.05;2.15;;;;;;;;;;5004509;28;20083;-62
2022/01/05 05:43:39;;;;;;;9.35;1.52;;;;;;;;;;5012000;28;20501;-63
2022/01/05 05:46:05;;;;;;;7.53;1.90;;;;;;;;;;5012358;28;20026;-63
2022/01/05 05:48:31;;;;;;;14.45;1.60;;;;;;;;;;5012083;28;20082;-63
2022/01/05 05:50:57;;;;;;;8.20;2.58;;;;;;;;;;4997884;28;20027;-63
2022/01/05 05:53:23;;;;;;;26.65;4.20;;;;;;;;;;4992039;28;20026;-63
2022/01/05 05:55:49;;;;;;;7.55;2.10;;;;;;;;;;4994370;28;20030;-63
2022/01/05 05:58:15;;;;;;;5.82;2.40;;;;;;;;;;4992608;28;20065;-63
2022/01/05 06:00:42;;;;;;;8.75;2.40;;;;;;;;;;5000589;28;20375;-63
2022/01/05 06:03:08;;;;;;;9.80;1.80;;;;;;;;;;4992843;28;20101;-62
2022/01/05 06:05:34;;;;;;;12.75;2.35;;;;;;;;;;4993979;28;20034;-63
2022/01/05 06:08:01;;;;;;;21.48;2.47;;;;;;;;;;4993278;28;20023;-62
2022/01/05 06:10:27;;;;;;;13.35;3.42;;;;;;;;;;4986817;28;20027;-62
2022/01/05 06:12:53;;;;;;;17.33;4.60;;;;;;;;;;4988840;28;20486;-62
2022/01/05 06:15:19;;;;;;;10.90;2.30;;;;;;;;;;4986640;28;20041;-62
2022/01/05 06:17:45;;;;;;;9.40;1.48;;;;;;;;;;4988393;28;20081;-62
2022/01/05 06:20:12;;;;;;;9.82;1.52;;;;;;;;;;4992861;28;20549;-62
2022/01/05 06:22:41;;;;;;;11.15;1.95;;;;;;;;;;5002593;28;20034;-62
2022/01/05 06:25:09;;;;;;;7.25;1.77;;;;;;;;;;5006606;28;20509;-62
2022/01/05 06:27:35;;;;;;;7.00;1.45;;;;;;;;;;4991737;28;20034;-62
2022/01/05 06:30:06;;;;;;;11.95;1.52;;;;;;;;;;4989878;28;20052;-61
2022/01/05 06:32:34;;;;;;;7.75;1.50;;;;;;;;;;4985764;28;20407;-62
2022/01/05 06:35:00;;;;;;;8.60;2.08;;;;;;;;;;4995147;28;20056;-62
2022/01/05 06:37:26;;;;;;;9.13;1.83;;;;;;;;;;4990602;28;20054;-62
2022/01/05 06:39:53;;;;;;;10.00;2.65;;;;;;;;;;4990440;28;20062;-69
2022/01/05 06:42:19;;;;;;;8.35;1.70;;;;;;;;;;4991005;28;20461;-62
2022/01/05 06:44:45;;;;;;;5.55;1.40;;;;;;;;;;4990322;28;20089;-62
2022/01/05 06:47:12;;;;;;;12.02;2.20;;;;;;;;;;5010182;28;20052;-62
2022/01/05 06:49:38;;;;;;;18.25;2.33;;;;;;;;;;5013819;28;20068;-62
2022/01/05 06:52:04;;;;;;;12.32;1.60;;;;;;;;;;5014682;28;20367;-62
2022/01/05 06:54:31;;;;;;;14.73;2.65;;;;;;;;;;5004947;28;20034;-62
2022/01/05 06:56:57;;;;;;;16.80;2.47;;;;;;;;;;4995024;28;20088;-62
2022/01/05 06:59:23;;;;;;;11.65;2.20;;;;;;;;;;4995513;28;20038;-62
2022/01/05 07:01:49;;;;;;;10.68;1.85;;;;;;;;;;4997086;28;20029;-62
2022/01/05 07:04:15;;;;;;;7.68;1.45;;;;;;;;;;4995050;28;20037;-62
2022/01/05 07:06:42;;;;;;;9.13;1.77;;;;;;;;;;5007968;28;20060;-62
2022/01/05 07:09:08;;;;;;;11.02;1.90;;;;;;;;;;4994010;28;20022;-62
2022/01/05 07:11:35;;;;;;;15.80;2.72;;;;;;;;;;5000129;28;20026;-62
2022/01/05 07:14:01;;;;;;;10.82;2.70;;;;;;;;;;5003488;28;20034;-62
2022/01/05 07:16:27;;;;;;;11.55;2.45;;;;;;;;;;4994382;28;20028;-62
2022/01/05 07:18:54;;;;;;;13.20;2.22;;;;;;;;;;4993224;28;20029;-62
2022/01/05 07:21:20;;;;;;;8.77;2.28;;;;;;;;;;5001074;28;20026;-62
2022/01/05 07:23:46;;;;;;;12.05;2.50;;;;;;;;;;4994272;28;20030;-61
2022/01/05 07:26:12;;;;;;;8.25;1.98;;;;;;;;;;4992981;28;20490;-62
2022/01/05 07:28:38;;;;;;;8.27;2.13;;;;;;;;;;4994837;28;20033;-62
2022/01/05 07:31:04;;;;;;;11.88;2.20;;;;;;;;;;4993347;28;20458;-62
2022/01/05 07:33:30;;;;;;;10.07;2.83;;;;;;;;;;4992644;28;20130;-62
2022/01/05 07:35:56;;;;;;;5.13;2.17;;;;;;;;;;4993659;28;20065;-62
2022/01/05 07:38:22;;;;;;;14.02;3.22;;;;;;;;;;4989698;28;20279;-62
2022/01/05 07:40:50;;;;;;;14.88;2.67;;;;;;;;;;4989066;28;20058;-62
2022/01/05 07:43:16;;;;;;;10.63;3.35;;;;;;;;;;4994309;28;20034;-62
2022/01/05 07:45:42;;;;;;;9.35;2.33;;;;;;;;;;4992318;28;20120;-62
2022/01/05 07:48:08;;;;;;;13.63;2.55;;;;;;;;;;4992693;28;20022;-62
2022/01/05 07:50:34;;;;;;;20.55;2.60;;;;;;;;;;4995628;28;20085;-62
2022/01/05 07:53:01;;;;;;;9.02;2.40;;;;;;;;;;4996102;28;20544;-62
2022/01/05 07:55:30;;;;;;;10.25;2.67;;;;;;;;;;4992315;28;20034;-62
2022/01/05 07:57:57;;;;;;;9.95;2.00;;;;;;;;;;4992504;28;20040;-62
2022/01/05 08:00:23;;;;;;;13.38;2.30;;;;;;;;;;4992033;28;20037;-62
2022/01/05 08:02:49;;;;;;;24.13;6.32;;;;;;;;;;4992550;28;20030;-61
2022/01/05 08:05:15;;;;;;;28.33;15.50;;;;;;;;;;4993063;28;20042;-62
2022/01/05 08:07:41;;;;;;;16.02;6.68;;;;;;;;;;4992827;28;20032;-61
2022/01/05 08:10:07;;;;;;;14.18;2.90;;;;;;;;;;4993715;28;20438;-62
2022/01/05 08:12:34;;;;;;;9.75;3.40;;;;;;;;;;5005827;28;20030;-62
2022/01/05 08:15:00;;;;;;;7.40;2.58;;;;;;;;;;4994070;28;20053;-62
2022/01/05 08:17:26;;;;;;;13.48;3.72;;;;;;;;;;4993588;28;20446;-62
2022/01/05 08:19:52;;;;;;;17.75;4.13;;;;;;;;;;4993089;28;20076;-62
2022/01/05 08:22:18;;;;;;;12.43;2.85;;;;;;;;;;4994456;28;20418;-62
2022/01/05 08:24:45;;;;;;;8.65;2.80;;;;;;;;;;4994130;28;20030;-62
2022/01/05 08:27:11;;;;;;;9.23;2.03;;;;;;;;;;4994379;28;20038;-62
2022/01/05 08:29:37;;;;;;;16.80;2.53;;;;;;;;;;4993689;28;20022;-62
2022/01/05 08:32:04;;;;;;;10.18;3.20;;;;;;;;;;4992998;28;20041;-62
2022/01/05 08:34:31;;;;;;;13.88;3.00;;;;;;;;;;4989418;28;20022;-62
2022/01/05 08:36:57;;;;;;;19.90;3.47;;;;;;;;;;4996166;28;20026;-62
2022/01/05 08:39:24;;;;;;;15.20;4.10;;;;;;;;;;4978688;28;20033;-62
2022/01/05 08:41:53;;;;;;;13.40;2.75;;;;;;;;;;4999926;28;20026;-62
2022/01/05 08:44:19;;;;;;;11.32;3.55;;;;;;;;;;4994382;28;20030;-62
2022/01/05 08:46:45;;;;;;;12.48;4.07;;;;;;;;;;4992835;28;20110;-62
2022/01/05 08:49:12;;;;;;;16.90;3.88;;;;;;;;;;4993922;28;20058;-62
2022/01/05 08:51:38;;;;;;;18.13;5.47;;;;;;;;;;5000097;28;20027;-62
2022/01/05 08:54:06;;;;;;;20.70;5.25;;;;;;;;;;4995053;28;20113;-62
2022/01/05 08:56:32;;;;;;;16.25;4.00;;;;;;;;;;5002236;28;20026;-62
2022/01/05 08:58:58;;;;;;;9.88;2.53;;;;;;;;;;5000827;28;20378;-62
2022/01/05 09:01:25;;;;;;;15.52;4.63;;;;;;;;;;5000597;28;20037;-62
2022/01/05 09:03:52;;;;;;;11.43;2.50;;;;;;;;;;5000710;28;20112;-62
2022/01/05 09:06:19;;;;;;;8.68;2.90;;;;;;;;;;4993338;28;20498;-62
2022/01/05 09:08:45;;;;;;;8.68;2.22;;;;;;;;;;4993932;28;20018;-62
2022/01/05 09:11:11;;;;;;;12.98;2.20;;;;;;;;;;4992206;28;20101;-62
2022/01/05 09:13:37;;;;;;;9.93;2.58;;;;;;;;;;4992926;28;20018;-62
2022/01/05 09:16:04;;;;;;;14.82;2.90;;;;;;;;;;4994552;28;20031;-62
2022/01/05 09:18:30;;;;;;;12.38;2.70;;;;;;;;;;4991505;28;20513;-62
2022/01/05 09:20:56;;;;;;;17.67;5.20;;;;;;;;;;4989114;28;20026;-62
2022/01/05 09:23:22;;;;;;;9.10;2.85;;;;;;;;;;4992617;28;20183;-62
2022/01/05 09:25:48;;;;;;;11.35;2.67;;;;;;;;;;4991513;28;20037;-62
2022/01/05 09:28:15;;;;;;;15.77;2.50;;;;;;;;;;4995819;28;20057;-62
2022/01/05 09:30:45;;;;;;;9.35;2.90;;;;;;;;;;4993789;28;20049;-62
2022/01/05 09:33:12;;;;;;;14.38;2.80;;;;;;;;;;4993450;28;20500;-62
2022/01/05 09:35:38;;;;;;;12.50;2.67;;;;;;;;;;4994196;28;20022;-62
2022/01/05 09:43:16;;;;;;;13.55;3.00;;;;;;;;;;4992591;28;20109;-62
2022/01/05 09:45:50;;;;;;;11.50;3.40;;;;;;;;;;4990191;28;20053;-62
2022/01/05 09:48:40;;;;;;;10.88;2.75;;;;;;;;;;4976957;28;20030;-62
2022/01/05 09:51:10;;;;;;;15.27;3.38;;;;;;;;;;4990861;28;20036;-62
2022/01/05 09:53:37;;;;;;;16.10;3.78;;;;;;;;;;4999098;28;20022;-63
2022/01/05 09:56:04;;;;;;;10.48;3.50;;;;;;;;;;4992760;28;20034;-64
2022/01/05 09:58:31;;;;;;;13.68;3.35;;;;;;;;;;4997363;28;20035;-64
2022/01/05 10:00:57;;;;;;;15.02;3.60;;;;;;;;;;4991233;28;20026;-64
2022/01/05 10:03:23;;;;;;;9.65;3.70;;;;;;;;;;5000110;28;20061;-64
2022/01/05 10:05:50;;;;;;;10.13;3.53;;;;;;;;;;4989371;28;20033;-64
2022/01/05 10:08:16;;;;;;;11.07;3.25;;;;;;;;;;4993567;28;20498;-64
2022/01/05 10:10:43;;;;;;;10.40;3.92;;;;;;;;;;4974360;28;20018;-64
2022/01/05 10:13:09;;;;;;;12.40;3.13;;;;;;;;;;5002667;28;20017;-65
2022/01/05 10:15:35;;;;;;;11.48;3.58;;;;;;;;;;4995173;28;20026;-65
2022/01/05 10:18:13;;;;;;;12.13;3.45;;;;;;;;;;4997945;28;20073;-64
2022/01/05 10:20:54;;;;;;;14.02;3.92;;;;;;;;;;4997288;28;20042;-64
2022/01/05 10:23:41;;;;;;;9.02;4.60;;;;;;;;;;4992726;28;20023;-64
2022/01/05 10:26:26;;;;;;;22.30;5.80;;;;;;;;;;4997353;28;20053;-64
2022/01/05 10:29:03;;;;;;;20.67;5.97;;;;;;;;;;4994995;28;20414;-64
2022/01/05 10:31:33;;;;;;;15.73;6.10;;;;;;;;;;4993723;28;20105;-64
2022/01/05 10:33:59;;;;;;;16.02;5.57;;;;;;;;;;5006892;28;20038;-64
2022/01/05 10:36:42;;;;;;;13.80;5.47;;;;;;;;;;4978094;28;20088;-63
2022/01/05 10:39:08;;;;;;;23.48;5.50;;;;;;;;;;4995863;28;20081;-64
2022/01/05 10:41:37;;;;;;;16.63;4.72;;;;;;;;;;4997812;28;20018;-63
2022/01/05 10:44:06;;;;;;;13.52;4.63;;;;;;;;;;4998601;28;20069;-63
2022/01/05 10:46:33;;;;;;;15.10;5.72;;;;;;;;;;4995689;28;20029;-63
2022/01/05 10:49:00;;;;;;;21.77;7.05;;;;;;;;;;5002083;28;20037;-63
2022/01/05 10:51:30;;;;;;;10.43;3.30;;;;;;;;;;4997228;28;20030;-63
2022/01/05 10:54:11;;;;;;;5.72;1.88;;;;;;;;;;4995112;28;20364;-63
2022/01/05 10:56:37;;;;;;;7.25;1.90;;;;;;;;;;4992052;28;20021;-64
2022/01/05 10:59:04;;;;;;;9.80;1.42;;;;;;;;;;4979166;28;20062;-64
2022/01/05 11:01:30;;;;;;;7.28;0.98;;;;;;;;;;4998664;28;20030;-64
2022/01/05 11:03:56;;;;;;;6.32;1.52;;;;;;;;;;4995777;28;20033;-64
2022/01/05 11:06:23;;;;;;;5.05;0.95;;;;;;;;;;5002857;28;20356;-64
2022/01/05 11:08:52;;;;;;;3.60;1.23;;;;;;;;;;4996052;28;20556;-64
2022/01/05 11:11:49;;;;;;;2.33;0.85;;;;;;;;;;4998832;28;20073;-63
2022/01/05 11:14:16;;;;;;;5.47;1.05;;;;;;;;;;4981168;28;20658;-64
2022/01/05 11:16:44;;;;;;;5.40;1.30;;;;;;;;;;4995054;28;20037;-64
2022/01/05 11:19:19;;;;;;;9.60;1.88;;;;;;;;;;4994369;28;20050;-64
2022/01/05 11:22:05;;;;;;;4.18;0.80;;;;;;;;;;5000580;28;20065;-64
2022/01/05 11:24:33;;;;;;;7.57;1.10;;;;;;;;;;4996779;28;20080;-63
2022/01/05 11:27:00;;;;;;;4.13;0.90;;;;;;;;;;4985666;28;20030;-63
2022/01/05 11:29:26;;;;;;;5.90;1.05;;;;;;;;;;5001933;28;20072;-67
2022/01/05 11:31:54;;;;;;;5.90;0.98;;;;;;;;;;4994735;28;20014;-63
2022/01/05 11:34:20;;;;;;;3.17;0.80;;;;;;;;;;4992691;28;20026;-63
2022/01/05 11:36:46;;;;;;;2.95;0.80;;;;;;;;;;4992583;28;20475;-63
2022/01/05 11:39:12;;;;;;;3.15;1.20;;;;;;;;;;4994424;28;20119;-63
2022/01/05 11:41:43;;;;;;;8.63;1.35;;;;;;;;;;4999969;28;20893;-64
2022/01/05 11:44:10;;;;;;;6.50;0.80;;;;;;;;;;5000411;28;20045;-63
2022/01/05 11:46:36;;;;;;;4.03;1.00;;;;;;;;;;5002199;28;20045;-64
2022/01/05 11:49:07;;;;;;;5.88;1.23;;;;;;;;;;4997117;28;20037;-63
2022/01/05 11:51:42;;;;;;;11.85;1.20;;;;;;;;;;4996342;28;20030;-64
2022/01/05 11:54:14;;;;;;;2.65;1.20;;;;;;;;;;4993775;28;20042;-63
2022/01/05 11:56:45;;;;;;;1.80;0.70;;;;;;;;;;4992195;28;20034;-63
2022/01/05 11:59:21;;;;;;;10.05;2.78;;;;;;;;;;4995616;28;20038;-63
2022/01/05 12:01:58;;;;;;;6.18;1.52;;;;;;;;;;4994774;28;20037;-63
2022/01/05 12:04:24;;;;;;;5.70;1.33;;;;;;;;;;4994038;28;20091;-63
2022/01/05 12:06:50;;;;;;;2.67;1.08;;;;;;;;;;4981473;28;20100;-63
2022/01/05 12:09:21;;;;;;;9.45;1.73;;;;;;;;;;5004354;28;20033;-63
2022/01/05 12:11:47;;;;;;;4.63;0.80;;;;;;;;;;4993112;28;20030;-63
2022/01/05 12:14:22;;;;;;;5.10;1.75;;;;;;;;;;4993784;28;20025;-63
2022/01/05 12:19:34;;;;;;;7.45;2.90;;;;;;;;;;4985972;28;20030;-64
2022/01/05 12:22:19;;;;;;;6.18;1.40;;;;;;;;;;4993467;28;20144;-63
2022/01/05 12:24:54;;;;;;;10.82;1.45;;;;;;;;;;4988518;28;20081;-63
2022/01/05 12:27:21;;;;;;;4.93;1.10;;;;;;;;;;4990495;28;20200;-63
2022/01/05 12:29:48;;;;;;;8.35;1.33;;;;;;;;;;4996054;28;20022;-64
2022/01/05 12:32:33;;;;;;;6.18;1.50;;;;;;;;;;4994392;28;20494;-64
2022/01/05 12:35:01;;;;;;;5.40;1.38;;;;;;;;;;4992081;28;20049;-65
2022/01/05 12:37:45;;;;;;;9.40;2.17;;;;;;;;;;4989083;28;20050;-64
2022/01/05 12:40:23;;;;;;;6.63;1.80;;;;;;;;;;4989457;28;20029;-63
2022/01/05 12:43:10;;;;;;;4.95;2.15;;;;;;;;;;4993398;28;20061;-64
2022/01/05 12:45:48;;;;;;;15.00;2.35;;;;;;;;;;4989945;28;20034;-64
2022/01/05 12:48:33;;;;;;;8.00;1.23;;;;;;;;;;4982600;28;20100;-64
2022/01/05 12:51:23;;;;;;;10.23;1.88;;;;;;;;;;4993106;28;20117;-64
2022/01/05 12:54:00;;;;;;;4.00;1.40;;;;;;;;;;4987523;28;20037;-64
2022/01/05 12:56:30;;;;;;;4.53;1.30;;;;;;;;;;4987929;28;20450;-64
2022/01/05 12:58:57;;;;;;;6.60;1.20;;;;;;;;;;4989322;28;20077;-64
2022/01/05 13:01:25;;;;;;;5.10;1.20;;;;;;;;;;4970737;28;20034;-64
2022/01/05 13:03:52;;;;;;;10.85;1.73;;;;;;;;;;4987747;28;20435;-64
2022/01/05 13:06:28;;;;;;;5.30;1.60;;;;;;;;;;4989183;28;20030;-64
2022/01/05 13:08:56;;;;;;;8.73;1.45;;;;;;;;;;4989876;28;20030;-64
2022/01/05 13:11:34;;;;;;;7.72;1.35;;;;;;;;;;4974023;28;20036;-64
2022/01/05 13:14:10;;;;;;;6.63;1.50;;;;;;;;;;4987818;28;20623;-64
2022/01/05 13:16:36;;;;;;;3.53;1.10;;;;;;;;;;4988496;28;20034;-64
2022/01/05 13:19:02;;;;;;;6.30;1.30;;;;;;;;;;4989563;28;20502;-64
2022/01/05 13:21:48;;;;;;;7.15;1.33;;;;;;;;;;4990980;28;20081;-64
2022/01/05 13:24:14;;;;;;;8.43;1.60;;;;;;;;;;4990249;28;20030;-64
2022/01/05 13:27:00;;;;;;;14.20;2.05;;;;;;;;;;4987618;28;20025;-64
2022/01/05 13:29:30;;;;;;;7.85;1.58;;;;;;;;;;4988698;28;20030;-64
2022/01/05 13:31:57;;;;;;;10.85;1.80;;;;;;;;;;4967548;28;20029;-64
2022/01/05 13:34:44;;;;;;;7.35;1.17;;;;;;;;;;4989432;28;20034;-64
2022/01/05 13:37:12;;;;;;;4.18;1.10;;;;;;;;;;4993398;28;20038;-64
2022/01/05 13:39:41;;;;;;;6.00;1.10;;;;;;;;;;4992060;28;20105;-64
2022/01/05 13:42:14;;;;;;;5.55;0.90;;;;;;;;;;4991318;28;20034;-64
2022/01/05 13:44:41;;;;;;;6.00;2.08;;;;;;;;;;4992112;28;20026;-64
2022/01/05 13:47:09;;;;;;;4.85;2.03;;;;;;;;;;4994900;28;20026;-64
2022/01/05 13:49:35;;;;;;;10.32;1.35;;;;;;;;;;4991271;28;20053;-64
2022/01/05 13:52:05;;;;;;;7.38;1.45;;;;;;;;;;4991090;28;20030;-64
2022/01/05 13:54:35;;;;;;;10.07;2.55;;;;;;;;;;4992027;28;20022;-64
2022/01/05 13:57:01;;;;;;;6.20;1.38;;;;;;;;;;4995798;28;20114;-64
2022/01/05 13:59:41;;;;;;;13.13;1.63;;;;;;;;;;4998513;28;20030;-64
2022/01/05 14:02:10;;;;;;;4.43;1.63;;;;;;;;;;4990779;28;20117;-64
2022/01/05 14:04:53;;;;;;;13.90;1.42;;;;;;;;;;5001294;28;20041;-64
2022/01/05 14:07:20;;;;;;;10.50;1.55;;;;;;;;;;5003326;28;20037;-64
2022/01/05 14:10:02;;;;;;;10.90;2.65;;;;;;;;;;4998271;28;20473;-64
2022/01/05 14:12:31;;;;;;;7.85;1.55;;;;;;;;;;4992557;28;20037;-64
2022/01/05 14:14:58;;;;;;;5.63;1.70;;;;;;;;;;4994908;28;20109;-64
2022/01/05 14:17:25;;;;;;;13.63;2.90;;;;;;;;;;4993772;28;20061;-64
2022/01/05 14:19:51;;;;;;;9.85;3.88;;;;;;;;;;4993482;28;20026;-64
2022/01/05 14:22:19;;;;;;;6.32;2.40;;;;;;;;;;4994150;28;20565;-64
2022/01/05 14:24:47;;;;;;;9.20;3.85;;;;;;;;;;4994149;28;20061;-64
2022/01/05 14:27:21;;;;;;;14.98;6.63;;;;;;;;;;4994557;28;20037;-64
2022/01/05 14:29:59;;;;;;;7.70;1.95;;;;;;;;;;4998781;28;20068;-64
2022/01/05 14:32:32;;;;;;;5.60;2.00;;;;;;;;;;4996301;28;20030;-64
2022/01/05 14:35:00;;;;;;;;;;;;;;;;;;4996367;28;20030;-64
2022/01/05 14:37:26;;;;;;;3.33;1.35;;;;;;;;;;4998434;28;20008;-64
2022/01/05 14:39:54;;;;;;;3.17;1.20;;;;;;;;;;4994986;28;20030;-64
2022/01/05 14:42:20;;;;;;;6.32;2.22;;;;;;;;;;4992884;28;20479;-64
2022/01/05 14:44:48;;;;;;;2.63;0.82;;;;;;;;;;4999032;28;20037;-64
2022/01/05 14:47:24;;;;;;;9.93;1.42;;;;;;;;;;4995823;28;20031;-63
2022/01/05 14:49:52;;;;;;;6.47;1.02;;;;;;;;;;4995174;28;20045;-64
2022/01/05 14:52:21;;;;;;;2.85;0.95;;;;;;;;;;4993317;28;20039;-63